Time;durP1;ratioP1;P1;durP2;ratioP2;P2;SDS_P1;SDS_P2;PMS_P1;PMS_P2;Temp;Humidity;BMP_temperature;BMP_pressure;BME280_temperature;BME280_humidity;BME280_pressure;Samples;Min_cycle;Max_cycle;Signal;HPM_P1;HPM_P2
2022/03/18 00:02:23;;;;;;;46.17;27.08;;;7.80;99.90;;;;;;5033400;28;20057;-83
2022/03/18 00:04:50;;;;;;;50.35;27.63;;;7.80;99.90;;;;;;5033240;28;20750;-72
2022/03/18 00:07:18;;;;;;;46.70;26.58;;;7.80;99.90;;;;;;5033206;28;20037;-86
2022/03/18 00:09:44;;;;;;;54.42;28.70;;;7.80;99.90;;;;;;5033066;28;20072;-84
2022/03/18 00:12:11;;;;;;;50.88;27.63;;;7.80;99.90;;;;;;5033537;28;20165;-87
2022/03/18 00:14:41;;;;;;;55.28;29.00;;;7.80;99.90;;;;;;5033009;28;20497;-75
2022/03/18 00:17:08;;;;;;;49.15;28.52;;;7.70;99.90;;;;;;5030184;28;20377;-75
2022/03/18 00:19:38;;;;;;;52.83;29.10;;;7.90;99.90;;;;;;5030764;28;20084;-84
2022/03/18 00:22:05;;;;;;;58.08;29.33;;;7.80;99.90;;;;;;5033178;28;20042;-76
2022/03/18 00:24:32;;;;;;;55.10;29.33;;;7.70;99.90;;;;;;5032720;28;20564;-84
2022/03/18 00:26:59;;;;;;;49.63;30.25;;;7.80;99.90;;;;;;5033253;28;20076;-86
2022/03/18 00:29:25;;;;;;;61.88;31.27;;;7.80;99.90;;;;;;5033058;28;20041;-85
2022/03/18 00:31:53;;;;;;;55.63;30.38;;;7.80;99.90;;;;;;5032922;28;20033;-86
2022/03/18 00:34:19;;;;;;;59.05;30.05;;;7.80;99.90;;;;;;5032961;28;20096;-72
2022/03/18 00:36:44;;;;;;;57.38;30.98;;;7.80;99.90;;;;;;5032895;28;20535;-86
2022/03/18 00:39:10;;;;;;;64.53;31.10;;;7.70;99.90;;;;;;5033203;28;20176;-86
2022/03/18 00:41:36;;;;;;;55.22;31.48;;;7.70;99.90;;;;;;5032878;28;20049;-84
2022/03/18 00:44:02;;;;;;;54.53;29.00;;;7.80;99.90;;;;;;5032804;28;20523;-84
2022/03/18 00:46:28;;;;;;;65.80;32.25;;;7.70;99.90;;;;;;5032900;28;20037;-86
2022/03/18 00:54:23;;;;;;;57.30;32.85;;;7.70;99.90;;;;;;5032850;28;20083;-79
2022/03/18 00:56:49;;;;;;;62.90;32.72;;;7.70;99.90;;;;;;5032802;28;20132;-86
2022/03/18 00:59:15;;;;;;;59.90;33.13;;;7.70;99.90;;;;;;5032769;28;20048;-77
2022/03/18 01:01:41;;;;;;;72.68;33.63;;;7.70;99.90;;;;;;5032776;28;20052;-82
2022/03/18 01:04:07;;;;;;;61.65;32.97;;;7.80;99.90;;;;;;5032637;28;20049;-72
2022/03/18 01:06:34;;;;;;;63.13;34.45;;;7.80;99.90;;;;;;5035108;28;20040;-83
2022/03/18 01:09:02;;;;;;;59.33;32.50;;;7.70;99.90;;;;;;5033647;28;20041;-81
2022/03/18 01:11:28;;;;;;;60.80;32.30;;;7.70;99.90;;;;;;5031677;28;20029;-79
2022/03/18 01:13:54;;;;;;;65.80;34.67;;;7.70;99.90;;;;;;5033726;28;20052;-80
2022/03/18 01:16:20;;;;;;;66.55;32.75;;;7.60;99.90;;;;;;5034299;28;20042;-81
2022/03/18 01:18:45;;;;;;;56.70;30.35;;;7.60;99.90;;;;;;5034315;28;20076;-82
2022/03/18 01:21:11;;;;;;;59.53;34.05;;;7.70;99.90;;;;;;5033893;28;20056;-82
2022/03/18 01:23:37;;;;;;;57.95;32.72;;;7.60;99.90;;;;;;5034380;28;20115;-82
2022/03/18 01:26:02;;;;;;;56.75;31.25;;;7.70;99.90;;;;;;5034309;28;20397;-73
2022/03/18 01:28:29;;;;;;;58.40;34.80;;;7.70;99.90;;;;;;5033738;28;20083;-81
2022/03/18 01:30:56;;;;;;;58.83;31.60;;;7.60;99.90;;;;;;5033659;28;20124;-80
2022/03/18 01:33:22;;;;;;;55.97;32.03;;;7.60;99.90;;;;;;5033461;28;20048;-81
2022/03/18 01:35:47;;;;;;;60.85;33.92;;;7.60;99.90;;;;;;5036589;28;20041;-76
2022/03/18 01:38:13;;;;;;;58.35;34.33;;;7.60;99.90;;;;;;5036730;28;20050;-81
2022/03/18 01:40:39;;;;;;;56.97;33.88;;;7.60;99.90;;;;;;5037366;28;20033;-80
2022/03/18 01:43:09;;;;;;;61.25;33.90;;;7.60;99.90;;;;;;5037116;28;20123;-81
2022/03/18 01:45:35;;;;;;;56.65;32.15;;;7.60;99.90;;;;;;5037571;28;20048;-81
2022/03/18 01:48:02;;;;;;;53.40;32.10;;;7.60;99.90;;;;;;5037060;28;20048;-81
2022/03/18 01:50:28;;;;;;;54.88;31.90;;;7.60;99.90;;;;;;5046865;28;20049;-78
2022/03/18 01:52:54;;;;;;;54.88;30.83;;;7.60;99.90;;;;;;5037482;28;20404;-80
2022/03/18 01:55:23;;;;;;;55.38;31.98;;;7.60;99.90;;;;;;5037765;28;20029;-81
2022/03/18 01:57:50;;;;;;;51.45;30.30;;;7.60;99.90;;;;;;5037458;28;20053;-72
2022/03/18 02:00:18;;;;;;;48.75;30.33;;;7.60;99.90;;;;;;5019732;28;20033;-73
2022/03/18 02:02:44;;;;;;;49.63;30.45;;;7.60;99.90;;;;;;5037152;28;20049;-73
2022/03/18 02:05:10;;;;;;;50.90;29.92;;;7.50;99.90;;;;;;5037532;28;20413;-81
2022/03/18 02:07:37;;;;;;;51.08;29.23;;;7.50;99.90;;;;;;5037280;28;20449;-82
2022/03/18 02:10:04;;;;;;;47.65;28.38;;;7.50;99.90;;;;;;5037393;28;20033;-83
2022/03/18 02:12:29;;;;;;;51.22;30.17;;;7.50;99.90;;;;;;5035514;28;20040;-82
2022/03/18 02:14:55;;;;;;;49.05;29.17;;;7.50;99.90;;;;;;5035657;28;20038;-86
2022/03/18 02:17:21;;;;;;;50.42;31.02;;;7.50;99.90;;;;;;5036154;28;20041;-85
2022/03/18 02:19:48;;;;;;;57.28;31.52;;;7.50;99.90;;;;;;5035591;28;20132;-85
2022/03/18 02:22:15;;;;;;;53.10;29.55;;;7.50;99.90;;;;;;5035726;28;20041;-73
2022/03/18 02:24:43;;;;;;;52.72;30.55;;;7.50;99.90;;;;;;5035358;28;20405;-73
2022/03/18 02:27:09;;;;;;;51.95;31.30;;;7.50;99.90;;;;;;5035144;28;20118;-79
2022/03/18 02:29:36;;;;;;;48.40;28.60;;;7.50;99.90;;;;;;5035204;28;20509;-85
2022/03/18 02:32:04;;;;;;;46.95;28.85;;;7.50;99.90;;;;;;5017399;28;20617;-85
2022/03/18 02:34:30;;;;;;;49.60;28.85;;;7.40;99.90;;;;;;5035263;28;20044;-79
2022/03/18 02:36:56;;;;;;;56.50;30.25;;;7.40;99.90;;;;;;5035081;28;20037;-79
2022/03/18 02:39:22;;;;;;;46.63;29.20;;;7.40;99.90;;;;;;5035213;28;20052;-83
2022/03/18 02:41:48;;;;;;;50.20;29.58;;;7.40;99.90;;;;;;5035020;28;20109;-85
2022/03/18 02:44:14;;;;;;;52.63;30.42;;;7.40;99.90;;;;;;5035243;28;20168;-85
2022/03/18 02:46:40;;;;;;;59.70;31.55;;;7.40;99.90;;;;;;5034628;28;20583;-83
2022/03/18 02:49:06;;;;;;;55.70;31.33;;;7.40;99.90;;;;;;5034884;28;20053;-72
2022/03/18 02:51:32;;;;;;;50.92;30.35;;;7.40;99.90;;;;;;5034986;28;20485;-86
2022/03/18 02:53:59;;;;;;;51.05;31.25;;;7.30;99.90;;;;;;5034886;28;20501;-85
2022/03/18 02:56:25;;;;;;;50.33;29.15;;;7.30;99.90;;;;;;5034790;28;20145;-74
2022/03/18 02:58:51;;;;;;;49.20;30.00;;;7.30;99.90;;;;;;5034664;28;20055;-84
2022/03/18 03:01:17;;;;;;;47.05;28.67;;;7.30;99.90;;;;;;5034690;28;20034;-80
2022/03/18 03:03:43;;;;;;;48.30;28.67;;;7.30;99.90;;;;;;5031748;28;20032;-85
2022/03/18 03:08:53;;;;;;;51.38;29.60;;;7.30;99.90;;;;;;5037558;28;20117;-77
2022/03/18 03:11:25;;;;;;;52.95;30.63;;;7.30;99.90;;;;;;5034035;28;20041;-73
2022/03/18 03:13:54;;;;;;;51.85;29.88;;;7.30;99.90;;;;;;5034220;28;20037;-74
2022/03/18 03:16:20;;;;;;;46.88;29.42;;;7.30;99.90;;;;;;5034426;28;20049;-75
2022/03/18 03:18:47;;;;;;;49.65;30.27;;;7.30;99.90;;;;;;5034216;28;20061;-72
2022/03/18 03:21:14;;;;;;;51.65;29.88;;;7.20;99.90;;;;;;5034342;28;20060;-81
2022/03/18 03:23:40;;;;;;;50.97;28.92;;;7.30;99.90;;;;;;5034424;28;20037;-86
2022/03/18 03:26:06;;;;;;;49.35;28.25;;;;;;;;;;5034230;28;20041;-81
2022/03/18 03:28:33;;;;;;;50.47;30.40;;;;;;;;;;5034194;28;20574;-84
2022/03/18 03:30:58;;;;;;;52.75;29.60;;;7.00;99.90;;;;;;5036674;28;20041;-82
2022/03/18 03:33:27;;;;;;;52.40;31.33;;;7.10;99.90;;;;;;5034132;28;20527;-85
2022/03/18 03:35:54;;;;;;;46.97;28.83;;;7.10;99.90;;;;;;5033834;28;20030;-84
2022/03/18 03:38:21;;;;;;;46.58;30.15;;;7.20;99.90;;;;;;5033761;28;20140;-82
2022/03/18 03:40:48;;;;;;;48.55;28.05;;;7.20;99.90;;;;;;5033728;28;20037;-73
2022/03/18 03:43:14;;;;;;;51.80;31.38;;;7.20;99.90;;;;;;5033735;28;20049;-76
2022/03/18 03:45:40;;;;;;;57.40;30.73;;;7.20;99.90;;;;;;5016381;28;20028;-85
2022/03/18 03:48:07;;;;;;;53.88;30.35;;;7.20;99.90;;;;;;5033493;28;20083;-84
2022/03/18 03:50:34;;;;;;;49.35;29.88;;;7.10;99.90;;;;;;5015750;28;20025;-80
2022/03/18 03:53:00;;;;;;;51.63;30.20;;;7.20;99.90;;;;;;5033747;28;20390;-73
2022/03/18 03:55:26;;;;;;;49.28;30.02;;;7.10;99.90;;;;;;5023868;28;20045;-73
2022/03/18 03:57:52;;;;;;;49.83;30.15;;;7.20;99.90;;;;;;5033523;28;20055;-84
2022/03/18 04:00:18;;;;;;;54.10;30.15;;;7.20;99.90;;;;;;5033412;28;20033;-85
2022/03/18 04:02:44;;;;;;;50.83;30.40;;;7.20;99.90;;;;;;5033610;28;20049;-84
2022/03/18 04:05:10;;;;;;;54.13;31.67;;;7.20;99.90;;;;;;5033318;28;20531;-85
2022/03/18 04:07:38;;;;;;;51.55;28.67;;;7.20;99.90;;;;;;5033292;28;20146;-72
2022/03/18 04:10:05;;;;;;;54.05;29.90;;;7.20;99.90;;;;;;5033318;28;20393;-72
2022/03/18 04:12:34;;;;;;;48.60;29.23;;;7.20;99.90;;;;;;5015780;28;20041;-84
2022/03/18 04:15:04;;;;;;;50.05;29.23;;;7.20;99.90;;;;;;5033276;28;20037;-84
2022/03/18 04:17:47;;;;;;;54.08;30.23;;;7.20;99.90;;;;;;5033057;28;20516;-78
2022/03/18 04:20:15;;;;;;;48.15;28.48;;;7.20;99.90;;;;;;5033342;28;20041;-72
2022/03/18 04:22:42;;;;;;;53.72;30.38;;;7.10;99.90;;;;;;5029871;28;20056;-74
2022/03/18 04:25:09;;;;;;;50.45;30.05;;;7.20;99.90;;;;;;5031179;28;20068;-74
2022/03/18 04:27:35;;;;;;;52.65;31.60;;;7.20;99.90;;;;;;5030818;28;20496;-81
2022/03/18 04:30:01;;;;;;;50.25;29.45;;;7.20;99.90;;;;;;5033033;28;20041;-84
2022/03/18 04:32:26;;;;;;;55.42;29.65;;;7.10;99.90;;;;;;5033201;28;20041;-85
2022/03/18 04:34:52;;;;;;;53.30;30.42;;;7.10;99.90;;;;;;5033081;28;20116;-85
2022/03/18 04:37:18;;;;;;;51.42;31.45;;;7.20;99.90;;;;;;5032789;28;20118;-79
2022/03/18 04:39:44;;;;;;;47.13;29.55;;;7.20;99.90;;;;;;5032984;28;20033;-73
2022/03/18 04:42:10;;;;;;;47.63;29.25;;;7.10;99.90;;;;;;5033000;28;20042;-74
2022/03/18 04:44:35;;;;;;;50.90;29.08;;;7.10;99.90;;;;;;5032758;28;20037;-75
2022/03/18 04:47:01;;;;;;;46.90;28.80;;;7.10;99.90;;;;;;5032852;28;20409;-84
2022/03/18 04:49:27;;;;;;;53.42;29.40;;;7.10;99.90;;;;;;5032638;28;20037;-84
2022/03/18 04:51:53;;;;;;;47.05;28.23;;;7.10;99.90;;;;;;5032739;28;20132;-85
2022/03/18 04:54:19;;;;;;;50.67;28.77;;;7.10;99.90;;;;;;5032706;28;20072;-80
2022/03/18 04:59:29;;;;;;;54.95;30.92;;;7.10;99.90;;;;;;5032804;28;20548;-73
2022/03/18 05:01:54;;;;;;;51.33;28.17;;;7.10;99.90;;;;;;5032492;28;20077;-78
2022/03/18 05:04:20;;;;;;;45.55;27.58;;;7.10;99.90;;;;;;5032528;28;20387;-84
2022/03/18 05:06:46;;;;;;;52.72;30.23;;;7.10;99.90;;;;;;5032605;28;20045;-72
2022/03/18 05:09:13;;;;;;;48.00;27.20;;;7.10;99.90;;;;;;5032532;28;20029;-84
2022/03/18 05:11:39;;;;;;;52.55;27.58;;;7.00;99.90;;;;;;5036400;28;20077;-81
2022/03/18 05:14:05;;;;;;;50.60;28.02;;;7.00;99.90;;;;;;5036568;28;20060;-82
2022/03/18 05:16:31;;;;;;;43.78;27.63;;;7.00;99.90;;;;;;5036173;28;20034;-83
2022/03/18 05:18:57;;;;;;;48.88;27.15;;;7.10;99.90;;;;;;5036249;28;20083;-81
2022/03/18 05:21:23;;;;;;;48.53;27.38;;;7.10;99.90;;;;;;5036614;28;20117;-72
2022/03/18 05:23:49;;;;;;;46.30;27.45;;;7.10;99.90;;;;;;5036535;28;20045;-84
2022/03/18 05:26:14;;;;;;;46.53;27.58;;;7.00;99.90;;;;;;5035768;28;20060;-72
2022/03/18 05:28:42;;;;;;;46.45;26.98;;;7.00;99.90;;;;;;5036350;28;20036;-84
2022/03/18 05:31:08;;;;;;;45.83;26.55;;;7.00;99.90;;;;;;5036266;28;20041;-81
2022/03/18 05:33:34;;;;;;;41.92;26.35;;;7.00;99.90;;;;;;5036169;28;20052;-72
2022/03/18 05:36:00;;;;;;;39.55;25.20;;;7.00;99.90;;;;;;5018914;28;20045;-84
2022/03/18 05:38:26;;;;;;;38.03;24.55;;;7.00;99.90;;;;;;5037942;28;20060;-77
2022/03/18 05:40:52;;;;;;;40.35;24.25;;;7.00;99.90;;;;;;5038366;28;20041;-74
2022/03/18 05:43:18;;;;;;;41.47;24.05;;;7.00;99.90;;;;;;5037452;28;20124;-82
2022/03/18 05:45:45;;;;;;;49.10;25.45;;;7.00;99.90;;;;;;5038102;28;20069;-81
2022/03/18 05:48:11;;;;;;;43.00;26.65;;;7.00;99.90;;;;;;5037637;28;20041;-72
2022/03/18 05:50:36;;;;;;;40.22;25.42;;;7.00;99.90;;;;;;5036022;28;20120;-74
2022/03/18 05:53:02;;;;;;;43.15;25.77;;;7.00;99.90;;;;;;5035196;28;20128;-77
2022/03/18 05:56:52;;;;;;;43.88;25.85;;;7.00;99.90;;;;;;5034297;28;20040;-75
2022/03/18 05:58:17;;;;;;;39.42;24.58;;;7.00;99.90;;;;;;5035349;28;20069;-73
2022/03/18 06:00:44;;;;;;;43.88;25.92;;;7.00;99.90;;;;;;5035891;28;20496;-76
2022/03/18 06:03:12;;;;;;;37.28;24.65;;;7.00;99.90;;;;;;5036003;28;20056;-80
2022/03/18 06:05:39;;;;;;;40.72;24.63;;;7.00;99.90;;;;;;5035086;28;20041;-77
2022/03/18 06:13:33;;;;;;;38.47;23.20;;;7.00;99.90;;;;;;5035565;28;20048;-73
2022/03/18 06:15:59;;;;;;;42.78;24.88;;;7.00;99.90;;;;;;5035413;28;20029;-81
2022/03/18 06:18:25;;;;;;;41.72;25.08;;;7.00;99.90;;;;;;5035406;28;20084;-81
2022/03/18 06:20:51;;;;;;;44.50;23.83;;;7.00;99.90;;;;;;5035211;28;20034;-80
2022/03/18 06:23:17;;;;;;;42.33;24.67;;;7.00;99.90;;;;;;5034519;28;20103;-81
2022/03/18 06:25:43;;;;;;;36.10;23.42;;;7.00;99.90;;;;;;5035104;28;20060;-74
2022/03/18 06:28:09;;;;;;;38.50;23.80;;;7.00;99.90;;;;;;5034583;28;20136;-81
2022/03/18 06:30:35;;;;;;;34.70;22.25;;;7.00;99.90;;;;;;5036571;28;20045;-82
2022/03/18 06:33:01;;;;;;;37.70;22.95;;;7.00;99.90;;;;;;5053648;28;20516;-74
2022/03/18 06:35:27;;;;;;;36.72;22.90;;;7.00;99.90;;;;;;5048371;28;20045;-82
2022/03/18 06:37:54;;;;;;;36.13;21.80;;;7.00;99.90;;;;;;5033968;28;20053;-79
2022/03/18 06:40:20;;;;;;;35.53;22.17;;;7.00;99.90;;;;;;5035259;28;20171;-82
2022/03/18 06:42:46;;;;;;;38.50;21.48;;;7.00;99.90;;;;;;5035260;28;20045;-77
2022/03/18 06:45:12;;;;;;;36.78;22.50;;;7.00;99.90;;;;;;5034533;28;20576;-81
2022/03/18 06:47:38;;;;;;;36.17;22.10;;;7.00;99.90;;;;;;5034297;28;20707;-74
2022/03/18 06:50:04;;;;;;;40.47;21.90;;;6.90;99.90;;;;;;5036608;28;20053;-73
2022/03/18 06:52:30;;;;;;;36.58;21.92;;;7.00;99.90;;;;;;5034234;28;20038;-74
2022/03/18 06:54:55;;;;;;;36.83;22.55;;;7.00;99.90;;;;;;5034904;28;20047;-81
2022/03/18 06:57:21;;;;;;;42.05;23.30;;;7.00;99.90;;;;;;5034888;28;20069;-80
2022/03/18 06:59:47;;;;;;;36.60;21.45;;;7.00;99.90;;;;;;5034879;28;20374;-79
2022/03/18 07:02:16;;;;;;;40.75;21.98;;;7.00;99.90;;;;;;5016807;28;20048;-80
2022/03/18 07:04:42;;;;;;;33.92;21.27;;;6.90;99.90;;;;;;5034556;28;20088;-78
2022/03/18 07:07:07;;;;;;;41.92;23.88;;;6.90;99.90;;;;;;5034595;28;20124;-72
2022/03/18 07:09:33;;;;;;;36.50;21.42;;;7.00;99.90;;;;;;5034164;28;20890;-80
2022/03/18 07:12:00;;;;;;;37.47;21.45;;;7.00;99.90;;;;;;5033696;28;20041;-80
2022/03/18 07:14:26;;;;;;;38.95;21.92;;;6.90;99.90;;;;;;5034291;28;20095;-78
2022/03/18 07:19:35;;;;;;;39.95;21.88;;;6.80;99.90;;;;;;5033344;28;20088;-79
2022/03/18 07:22:01;;;;;;;39.15;21.98;;;6.80;99.90;;;;;;5033516;28;20056;-79
2022/03/18 07:24:27;;;;;;;36.85;21.58;;;6.80;99.90;;;;;;5032912;28;20037;-78
2022/03/18 07:26:53;;;;;;;40.17;21.88;;;6.90;99.90;;;;;;5034371;28;20037;-79
2022/03/18 07:29:19;;;;;;;35.38;21.95;;;6.80;99.90;;;;;;5033556;28;20073;-78
2022/03/18 07:31:45;;;;;;;37.72;22.10;;;6.80;99.90;;;;;;5033890;28;20045;-74
2022/03/18 07:34:10;;;;;;;35.65;20.77;;;6.80;99.90;;;;;;5032804;28;20056;-76
2022/03/18 07:36:36;;;;;;;41.92;22.75;;;6.80;99.90;;;;;;5033907;28;20067;-78
2022/03/18 07:39:02;;;;;;;35.80;21.30;;;6.80;99.90;;;;;;5033127;28;20076;-78
2022/03/18 07:41:27;;;;;;;37.38;22.67;;;6.90;99.90;;;;;;5033632;28;20391;-79
2022/03/18 07:43:53;;;;;;;35.85;22.35;;;6.90;99.90;;;;;;5033942;28;20045;-79
2022/03/18 07:46:19;;;;;;;39.08;21.83;;;6.80;99.90;;;;;;5034090;28;20041;-80
2022/03/18 07:48:46;;;;;;;39.60;22.98;;;6.70;99.90;;;;;;5033815;28;20049;-76
2022/03/18 07:51:12;;;;;;;39.22;22.52;;;6.80;99.90;;;;;;5033735;28;20386;-72
2022/03/18 07:53:38;;;;;;;38.95;21.92;;;6.80;99.90;;;;;;5033666;28;20149;-73
2022/03/18 07:56:04;;;;;;;38.97;23.20;;;6.80;99.90;;;;;;5033726;28;20441;-79
2022/03/18 07:58:30;;;;;;;42.83;23.48;;;6.80;99.90;;;;;;5033636;28;20408;-79
2022/03/18 08:00:57;;;;;;;40.80;22.52;;;6.80;99.90;;;;;;5033656;28;20496;-79
2022/03/18 08:03:22;;;;;;;36.30;22.45;;;6.80;99.90;;;;;;5033521;28;20506;-79
2022/03/18 08:05:48;;;;;;;34.13;21.92;;;6.80;99.90;;;;;;5033634;28;20120;-79
2022/03/18 08:08:14;;;;;;;34.85;20.52;;;6.80;99.90;;;;;;5033674;28;20091;-72
2022/03/18 08:10:40;;;;;;;36.25;21.88;;;6.80;99.90;;;;;;5033558;28;20045;-76
2022/03/18 08:13:06;;;;;;;36.55;21.83;;;6.80;99.90;;;;;;5033453;28;20404;-79
2022/03/18 08:15:32;;;;;;;36.78;21.63;;;6.80;99.90;;;;;;5033428;28;20040;-77
2022/03/18 08:17:58;;;;;;;35.05;21.15;;;6.80;99.90;;;;;;5033286;28;20076;-78
2022/03/18 08:20:25;;;;;;;33.33;20.90;;;6.80;99.90;;;;;;5033457;28;20504;-72
2022/03/18 08:22:51;;;;;;;41.70;22.38;;;6.80;99.90;;;;;;5033524;28;20401;-79
2022/03/18 08:25:18;;;;;;;41.95;23.55;;;6.80;99.90;;;;;;5033333;28;20045;-75
2022/03/18 08:27:45;;;;;;;36.85;21.80;;;6.90;99.90;;;;;;5029616;28;20049;-73
2022/03/18 08:30:11;;;;;;;39.25;22.60;;;6.80;99.90;;;;;;5031806;28;20033;-79
2022/03/18 08:32:38;;;;;;;41.47;22.30;;;6.80;99.90;;;;;;5033109;28;20534;-76
2022/03/18 08:35:04;;;;;;;43.03;23.77;;;6.90;99.90;;;;;;5033462;28;20068;-78
2022/03/18 08:40:15;;;;;;;38.60;22.90;;;6.90;99.90;;;;;;5033233;28;20040;-78
2022/03/18 08:42:41;;;;;;;42.00;23.27;;;6.90;99.90;;;;;;5033192;28;20048;-79
2022/03/18 08:45:08;;;;;;;41.45;23.35;;;6.90;99.90;;;;;;5032806;28;20044;-79
2022/03/18 08:47:33;;;;;;;39.38;23.88;;;6.90;99.90;;;;;;5032952;28;20531;-78
2022/03/18 08:49:59;;;;;;;43.08;25.00;;;6.90;99.90;;;;;;5033035;28;20068;-74
2022/03/18 08:52:25;;;;;;;37.70;22.50;;;7.00;99.90;;;;;;5032958;28;20048;-79
2022/03/18 08:54:51;;;;;;;41.35;23.40;;;6.90;99.90;;;;;;5015589;28;20049;-79
2022/03/18 08:57:17;;;;;;;40.53;23.60;;;6.90;99.90;;;;;;5032882;28;20029;-79
2022/03/18 08:59:43;;;;;;;42.63;23.30;;;7.00;99.90;;;;;;5032966;28;20049;-78
2022/03/18 09:02:11;;;;;;;37.53;22.73;;;7.00;99.90;;;;;;5033062;28;20524;-79
2022/03/18 09:04:36;;;;;;;41.78;23.98;;;7.00;99.90;;;;;;5032907;28;20042;-79
2022/03/18 09:07:03;;;;;;;41.80;22.92;;;7.10;99.90;;;;;;5033059;28;20038;-79
2022/03/18 09:09:28;;;;;;;45.40;23.48;;;7.10;99.90;;;;;;5032709;28;20132;-73
2022/03/18 09:11:54;;;;;;;39.20;23.58;;;7.20;99.90;;;;;;5032843;28;20553;-71
2022/03/18 09:14:21;;;;;;;40.22;23.08;;;7.20;99.90;;;;;;5032723;28;20132;-76
2022/03/18 09:16:49;;;;;;;45.05;22.90;;;7.10;99.90;;;;;;5032722;28;20125;-79
2022/03/18 09:19:15;;;;;;;41.67;22.33;;;7.20;99.90;;;;;;5032819;28;20057;-79
2022/03/18 09:21:41;;;;;;;38.40;21.88;;;7.30;99.90;;;;;;5032673;28;20390;-80
2022/03/18 09:24:07;;;;;;;41.10;22.23;;;7.20;99.90;;;;;;5032670;28;20048;-79
2022/03/18 09:26:33;;;;;;;40.55;23.00;;;7.20;99.90;;;;;;5032602;28;20529;-79
2022/03/18 09:28:59;;;;;;;42.20;22.55;;;7.30;99.90;;;;;;5032610;28;20033;-79
2022/03/18 09:31:24;;;;;;;38.50;23.23;;;7.20;99.90;;;;;;5032425;28;20045;-72
2022/03/18 09:33:50;;;;;;;40.30;23.40;;;7.30;99.90;;;;;;5032297;28;20033;-79
2022/03/18 09:36:18;;;;;;;40.15;22.35;;;7.30;99.90;;;;;;5032369;28;20046;-79
2022/03/18 09:38:46;;;;;;;39.97;22.77;;;7.30;99.90;;;;;;5032360;28;20060;-75
2022/03/18 09:41:12;;;;;;;37.85;21.80;;;7.40;99.90;;;;;;5032639;28;20042;-79
2022/03/18 09:43:39;;;;;;;39.85;22.15;;;7.30;99.90;;;;;;5032522;28;20045;-79
2022/03/18 09:46:10;;;;;;;39.00;22.50;;;7.40;99.90;;;;;;5032591;28;20130;-78
2022/03/18 09:48:37;;;;;;;47.20;22.83;;;7.40;99.90;;;;;;5032370;28;20045;-73
2022/03/18 09:51:03;;;;;;;43.80;23.77;;;7.40;99.90;;;;;;5032539;28;20041;-72
2022/03/18 09:53:29;;;;;;;38.95;23.05;;;7.40;99.90;;;;;;5032474;28;20033;-77
2022/03/18 09:55:54;;;;;;;40.40;22.25;;;7.40;99.90;;;;;;5032424;28;20045;-78
2022/03/18 09:58:22;;;;;;;44.92;23.10;;;7.50;99.90;;;;;;5035379;28;20648;-77
2022/03/18 10:00:50;;;;;;;39.10;22.67;;;7.50;99.90;;;;;;5035867;28;20547;-77
2022/03/18 10:03:17;;;;;;;38.67;21.88;;;7.50;99.90;;;;;;5035625;28;20531;-74
2022/03/18 10:06:11;;;;;;;39.80;23.67;;;7.50;99.90;;;;;;5035894;28;20037;-77
2022/03/18 10:08:41;;;;;;;45.00;22.35;;;7.60;99.90;;;;;;5033440;28;20037;-77
2022/03/18 10:11:18;;;;;;;45.67;22.35;;;7.60;99.90;;;;;;5035642;28;20029;-79
2022/03/18 10:14:07;;;;;;;40.17;22.88;;;7.60;99.90;;;;;;5035542;28;20472;-79
2022/03/18 10:16:45;;;;;;;39.78;22.85;;;7.70;99.90;;;;;;5035521;28;20124;-78
2022/03/18 10:19:18;;;;;;;41.60;22.98;;;7.70;99.90;;;;;;5035412;28;20057;-76
2022/03/18 10:21:54;;;;;;;40.20;23.02;;;7.70;99.90;;;;;;5035590;28;20048;-74
2022/03/18 10:24:28;;;;;;;40.67;22.75;;;7.80;99.90;;;;;;5035402;28;20944;-72
2022/03/18 10:27:17;;;;;;;47.17;24.35;;;7.70;99.90;;;;;;5035229;28;20030;-76
2022/03/18 10:29:53;;;;;;;40.47;21.17;;;7.80;99.90;;;;;;5035316;28;20551;-75
2022/03/18 10:32:24;;;;;;;42.55;21.15;;;7.80;99.90;;;;;;5035337;28;20037;-71
2022/03/18 10:37:46;;;;;;;47.53;23.55;;;7.80;99.90;;;;;;5019932;28;20149;-78
2022/03/18 10:40:12;;;;;;;38.70;20.95;;;7.80;99.90;;;;;;5035135;28;20033;-78
2022/03/18 10:42:38;;;;;;;40.35;22.23;;;7.90;99.90;;;;;;5035097;28;20084;-72
2022/03/18 10:45:06;;;;;;;46.00;22.98;;;7.90;99.90;;;;;;5035057;28;20065;-77
2022/03/18 10:47:36;;;;;;;35.78;20.88;;;7.90;99.90;;;;;;5042412;28;20033;-72
2022/03/18 10:50:11;;;;;;;45.15;23.67;;;7.80;99.90;;;;;;5053063;28;20044;-78
2022/03/18 10:52:38;;;;;;;38.70;21.38;;;7.90;99.90;;;;;;5038067;28;20045;-79
2022/03/18 10:55:29;;;;;;;37.08;21.63;;;7.90;99.90;;;;;;5034856;28;20505;-72
2022/03/18 10:57:56;;;;;;;38.33;21.88;;;8.00;99.90;;;;;;5027680;28;20049;-78
2022/03/18 11:00:25;;;;;;;36.92;20.73;;;7.90;99.90;;;;;;5017290;28;20049;-79
2022/03/18 11:02:53;;;;;;;41.78;21.38;;;7.90;99.90;;;;;;5025802;28;20429;-79
2022/03/18 11:05:22;;;;;;;38.00;21.75;;;8.00;99.90;;;;;;5032790;28;20187;-72
2022/03/18 11:07:51;;;;;;;38.45;22.13;;;8.00;99.90;;;;;;5034269;28;20539;-74
2022/03/18 11:13:04;;;;;;;40.35;22.23;;;7.90;99.90;;;;;;5034792;28;20045;-72
2022/03/18 11:15:36;;;;;;;37.35;21.20;;;8.00;99.90;;;;;;5034610;28;20042;-78
2022/03/18 11:18:05;;;;;;;44.97;23.02;;;8.00;99.90;;;;;;5034214;28;20124;-78
2022/03/18 11:20:42;;;;;;;41.55;21.02;;;8.00;99.90;;;;;;5034249;28;20589;-76
2022/03/18 11:23:20;;;;;;;43.97;21.95;;;8.10;99.90;;;;;;5034291;28;20044;-78
2022/03/18 11:25:49;;;;;;;41.78;20.27;;;8.10;99.90;;;;;;5034277;28;20435;-80
2022/03/18 11:28:17;;;;;;;37.03;22.00;;;8.10;99.90;;;;;;5034158;28;20079;-78
2022/03/18 11:30:44;;;;;;;45.92;21.98;;;8.20;99.90;;;;;;5034219;28;20093;-78
2022/03/18 11:33:09;;;;;;;38.70;21.55;;;8.10;99.90;;;;;;5034346;28;20041;-79
2022/03/18 11:35:47;;;;;;;39.53;21.30;;;8.20;99.90;;;;;;5034307;28;20038;-78
2022/03/18 11:38:14;;;;;;;39.15;20.52;;;8.20;99.90;;;;;;5034108;28;20057;-77
2022/03/18 11:41:06;;;;;;;35.03;20.60;;;8.20;99.90;;;;;;5034095;28;20037;-77
2022/03/18 11:43:41;;;;;;;37.97;19.92;;;8.20;99.90;;;;;;5029891;28;20044;-78
2022/03/18 11:46:13;;;;;;;30.73;19.42;;;8.20;99.90;;;;;;5034056;28;20034;-77
2022/03/18 11:48:44;;;;;;;36.78;20.63;;;8.30;99.90;;;;;;5033897;28;20045;-74
2022/03/18 11:51:24;;;;;;;43.53;20.48;;;8.30;99.90;;;;;;5033862;28;20036;-78
2022/03/18 11:53:52;;;;;;;41.53;20.92;;;8.20;99.90;;;;;;5033575;28;20034;-76
2022/03/18 11:56:20;;;;;;;37.08;19.88;;;8.30;99.90;;;;;;5034046;28;20397;-78
2022/03/18 11:58:46;;;;;;;45.25;21.45;;;8.30;99.90;;;;;;5033699;28;20535;-79
2022/03/18 12:01:37;;;;;;;44.17;21.30;;;8.30;99.90;;;;;;5033747;28;20041;-73
2022/03/18 12:04:05;;;;;;;41.88;20.08;;;8.30;99.90;;;;;;5033668;28;20102;-79
2022/03/18 12:06:31;;;;;;;36.72;20.73;;;8.30;99.90;;;;;;5033602;28;20090;-78
2022/03/18 12:08:58;;;;;;;38.05;19.95;;;8.30;99.90;;;;;;5033650;28;20049;-78
2022/03/18 12:11:26;;;;;;;34.90;20.80;;;8.40;99.90;;;;;;5033385;28;20021;-78
2022/03/18 12:13:52;;;;;;;54.53;21.92;;;8.30;99.90;;;;;;5033271;28;20045;-78
2022/03/18 12:16:19;;;;;;;38.03;19.85;;;8.30;99.90;;;;;;5033171;28;20443;-78
2022/03/18 12:18:46;;;;;;;36.22;20.10;;;8.40;99.90;;;;;;5033154;28;20081;-74
2022/03/18 12:21:13;;;;;;;37.00;19.95;;;8.30;99.90;;;;;;5032827;28;20048;-74
2022/03/18 12:23:39;;;;;;;34.17;19.15;;;8.30;99.90;;;;;;5033405;28;20045;-79
2022/03/18 12:26:06;;;;;;;35.50;19.80;;;8.40;99.90;;;;;;5033584;28;20647;-78
2022/03/18 12:28:46;;;;;;;41.88;20.75;;;8.40;99.90;;;;;;5033330;28;20045;-79
2022/03/18 12:31:20;;;;;;;37.92;20.13;;;8.50;99.90;;;;;;5030716;28;20045;-79
2022/03/18 12:33:46;;;;;;;39.05;18.30;;;8.40;99.90;;;;;;5031105;28;20041;-72
2022/03/18 12:36:13;;;;;;;42.72;19.92;;;8.50;99.90;;;;;;5032427;28;20038;-80
2022/03/18 12:38:46;;;;;;;39.10;18.65;;;8.50;99.90;;;;;;5033370;28;20081;-80
2022/03/18 12:41:12;;;;;;;41.22;19.40;;;8.60;99.90;;;;;;5033183;28;20540;-72
2022/03/18 12:43:37;;;;;;;35.60;19.05;;;8.60;99.90;;;;;;5033019;28;20432;-79
2022/03/18 12:46:05;;;;;;;45.42;20.70;;;8.70;99.90;;;;;;5033040;28;20124;-79
2022/03/18 12:48:30;;;;;;;36.63;18.58;;;8.70;99.90;;;;;;5033118;28;20129;-79
2022/03/18 12:50:57;;;;;;;40.42;20.10;;;8.70;99.90;;;;;;5033083;28;20128;-78
2022/03/18 12:53:24;;;;;;;37.33;18.83;;;8.70;99.90;;;;;;5033061;28;20124;-79
2022/03/18 12:55:53;;;;;;;39.92;18.77;;;8.70;99.90;;;;;;5032911;28;20045;-80
2022/03/18 12:58:20;;;;;;;40.60;18.77;;;8.80;99.90;;;;;;5032516;28;20053;-79
2022/03/18 13:00:51;;;;;;;34.38;18.13;;;8.80;99.90;;;;;;5032702;28;20072;-78
2022/03/18 13:03:20;;;;;;;36.58;18.42;;;8.80;99.90;;;;;;5033039;28;20132;-79
2022/03/18 13:05:47;;;;;;;35.45;19.20;;;8.90;99.90;;;;;;5032862;28;20128;-72
2022/03/18 13:08:16;;;;;;;46.88;19.35;;;8.90;99.90;;;;;;5032871;28;20445;-79